Aérodrome :
LOGIN :

S'inscrire | Disclaimer

   EN    FR    IT 

 










Légende :    VFR   VFR Marginal   IFR   IFR Intensif   IFR Très Intensif
Visi : 
Plafond : 
>= 8 km
>= 3000ft
5 à 8 km
1000 à 3000 ft
1500m à 5 km
500 à 1000 ft
800 à 1500m
200 à 500 ft
< 800m
< 200 ft
Symboles :   Orages  Brouillard  Fortes neiges  Fortes précipitations  Vent > 20 kt
SIGMETs :   Divers  Orages  Givrage  Turbulence  Onde Orograph.  Cendres Volcan.






- Altitude de l'aérodrome : 309 ft
- Code IATA : FNI


LFTW - Nîmes Garons

DERNIER METAR :
  • 221200Z AUTO 05008KT CAVOK 10/04 Q1028 TEMPO RA SCT035TCU BKN045

METARs EXPIRÉS :
  • 221130Z AUTO 04008KT CAVOK 09/04 Q1029 TEMPO RA SCT035TCU BKN045
  • 221100Z AUTO 04008KT 9999 FEW032 SCT070 09/04 Q1029 TEMPO RA SCT035TCU BKN045
  • 221030Z AUTO 04007KT 9999 -RA FEW043 BKN068 BKN088 08/03 Q1029 TEMPO RA SCT035TCU BKN045
  • 221000Z AUTO 04009KT CAVOK 07/03 Q1029 TEMPO RA SCT035TCU BKN045
  • 220930Z AUTO 05009KT 020V080 CAVOK 07/03 Q1029 TEMPO RA SCT035TCU BKN045

TAF TAF LFTW
Valide du 22 à 09h jusqu'au 23 à 09h UTC


220800Z 2209/2309 03012KT CAVOK
TEMPO 2209/2213 RA SCT035TCU BKN045
BECMG 2307/2308 BKN035



MET'MAP, la Météo Aéronautique d'un coup d'oeil ! - Copyright ORBIFLY Décembre 2007 - Disclaimer

ORBIFLY MET'MAP TEAM :

Programmation & Développement : Alexandra Zaïnal
Sur une idée originale de : Baudouin d'Aumeries
Assistance à la programmation : Marc-Olivier Méhu
Soutien technique & logistique : Manuel Goepfert

Contact : metmap@orbifly.com




SOURCES & CREDITS :

   NOAA